createdAt,value
2018-06-27T00:00:03.523Z,85.50
2018-06-27T00:01:39.489Z,85.79
2018-06-27T00:03:18.684Z,85.21
2018-06-27T00:04:54.550Z,85.89
2018-06-27T00:06:30.381Z,84.91
2018-06-27T00:08:08.447Z,85.74
2018-06-27T00:09:43.893Z,85.88
2018-06-27T00:11:20.399Z,85.25
2018-06-27T00:12:56.744Z,85.73
2018-06-27T00:14:32.032Z,85.56
2018-06-27T00:16:08.279Z,85.30
2018-06-27T00:17:44.322Z,85.60
2018-06-27T00:19:20.379Z,85.72
2018-06-27T00:20:55.547Z,85.76
2018-06-27T00:22:31.227Z,85.63
2018-06-27T00:24:06.543Z,86.17
2018-06-27T00:25:41.893Z,85.18
2018-06-27T00:27:17.181Z,85.69
2018-06-27T00:28:52.528Z,85.32
2018-06-27T00:30:27.988Z,85.53
2018-06-27T00:32:03.631Z,85.65
2018-06-27T00:33:39.589Z,85.50
2018-06-27T00:35:14.765Z,86.18
2018-06-27T00:36:50.340Z,86.14
2018-06-27T00:38:27.652Z,86.62
2018-06-27T00:40:03.236Z,86.97
2018-06-27T00:41:40.214Z,86.51
2018-06-27T00:43:17.275Z,86.23
2018-06-27T00:44:52.332Z,86.85
2018-06-27T00:46:27.943Z,86.81
2018-06-27T00:48:03.851Z,86.21
2018-06-27T00:49:39.281Z,86.72
2018-06-27T00:51:14.528Z,86.63
2018-06-27T00:52:50.466Z,86.37
2018-06-27T00:54:26.058Z,86.49
2018-06-27T00:56:01.864Z,86.99
2018-06-27T00:57:36.969Z,86.41
2018-06-27T00:59:12.808Z,86.80
2018-06-27T01:00:51.282Z,87.38
2018-06-27T01:02:26.543Z,87.01
2018-06-27T01:04:02.171Z,86.97
2018-06-27T01:05:38.285Z,87.07
2018-06-27T01:07:14.220Z,86.94
2018-06-27T01:08:49.393Z,86.59
2018-06-27T01:10:24.662Z,87.06
2018-06-27T01:12:01.098Z,87.21
2018-06-27T01:13:36.385Z,87.06
2018-06-27T01:15:14.089Z,87.12
2018-06-27T01:16:49.186Z,87.30
2018-06-27T01:18:24.941Z,87.14
2018-06-27T01:20:00.540Z,87.25
2018-06-27T01:21:35.778Z,87.42
2018-06-27T01:23:12.841Z,87.15
2018-06-27T01:24:52.506Z,87.53
2018-06-27T01:26:29.191Z,87.99
2018-06-27T01:28:06.558Z,87.64
2018-06-27T01:29:42.622Z,87.89
2018-06-27T01:31:18.171Z,88.29
2018-06-27T01:32:57.265Z,88.32
2018-06-27T01:34:32.439Z,87.85
2018-06-27T01:36:09.254Z,87.74
2018-06-27T01:37:45.687Z,87.76
2018-06-27T01:39:21.458Z,88.13
2018-06-27T01:40:58.375Z,87.86
2018-06-27T01:42:35.259Z,87.76
2018-06-27T01:44:11.680Z,88.03
2018-06-27T01:45:48.439Z,88.43
2018-06-27T01:47:23.459Z,88.54
2018-06-27T01:48:59.120Z,87.99
2018-06-27T01:50:35.086Z,87.83
2018-06-27T01:52:10.681Z,87.81
2018-06-27T01:53:47.140Z,88.24
2018-06-27T01:55:23.242Z,88.26
2018-06-27T01:57:03.547Z,88.72
2018-06-27T01:58:39.507Z,88.69
2018-06-27T02:00:19.273Z,88.52
2018-06-27T02:01:56.335Z,88.58
2018-06-27T02:03:31.597Z,88.96
2018-06-27T02:05:09.869Z,88.83
2018-06-27T02:06:47.711Z,88.46
2018-06-27T02:08:23.606Z,88.42
2018-06-27T02:09:59.555Z,88.26
2018-06-27T02:11:35.203Z,88.77
2018-06-27T02:13:10.547Z,88.91
2018-06-27T02:14:48.282Z,89.38
2018-06-27T02:16:23.967Z,89.09
2018-06-27T02:18:00.403Z,88.76
2018-06-27T02:19:36.853Z,88.95
2018-06-27T02:21:12.253Z,88.54
2018-06-27T02:22:49.578Z,88.51
2018-06-27T02:24:28.748Z,88.59
2018-06-27T02:26:04.780Z,88.73
2018-06-27T02:27:40.908Z,88.73
2018-06-27T02:29:16.941Z,89.41
2018-06-27T02:30:53.594Z,89.49
2018-06-27T02:32:28.768Z,89.35
2018-06-27T02:34:04.958Z,89.31
2018-06-27T02:35:40.457Z,90.05
2018-06-27T02:37:16.676Z,89.98
2018-06-27T02:38:51.849Z,90.12
2018-06-27T02:40:27.034Z,90.10
2018-06-27T02:42:01.997Z,90.13
2018-06-27T02:43:37.241Z,90.16
2018-06-27T02:45:14.791Z,90.08
2018-06-27T02:46:50.274Z,89.85
2018-06-27T02:48:25.469Z,90.06
2018-06-27T02:50:00.463Z,89.91
2018-06-27T02:51:35.489Z,90.22
2018-06-27T02:53:11.838Z,89.80
2018-06-27T02:54:48.194Z,89.41
2018-06-27T02:56:24.274Z,89.59
2018-06-27T02:57:59.325Z,89.76
2018-06-27T02:59:34.689Z,89.37
2018-06-27T03:01:10.648Z,89.62
2018-06-27T03:02:48.336Z,90.18
2018-06-27T03:04:23.341Z,89.67
2018-06-27T03:05:59.346Z,90.05
2018-06-27T03:07:35.580Z,90.20
2018-06-27T03:09:12.359Z,90.20
2018-06-27T03:10:48.384Z,90.21
2018-06-27T03:12:23.829Z,90.04
2018-06-27T03:13:59.769Z,89.87
2018-06-27T03:15:35.218Z,90.08
2018-06-27T03:17:10.397Z,90.02
2018-06-27T03:18:55.988Z,90.01
2018-06-27T03:20:31.056Z,89.90
2018-06-27T03:22:07.061Z,89.99
2018-06-27T03:23:43.100Z,89.91
2018-06-27T03:25:22.096Z,89.87
2018-06-27T03:26:57.167Z,90.11
2018-06-27T03:28:33.535Z,89.64
2018-06-27T03:30:09.991Z,89.91
2018-06-27T03:31:46.606Z,90.06
2018-06-27T03:33:22.375Z,89.89
2018-06-27T03:34:57.351Z,90.23
2018-06-27T03:36:32.428Z,89.67
2018-06-27T03:38:09.288Z,89.85
2018-06-27T03:39:44.173Z,90.03
2018-06-27T03:41:22.512Z,90.35
2018-06-27T03:42:59.695Z,90.02
2018-06-27T03:44:36.895Z,90.35
2018-06-27T03:46:13.411Z,89.82
2018-06-27T03:47:49.121Z,89.97
2018-06-27T03:49:26.092Z,90.27
2018-06-27T03:51:01.120Z,90.06
2018-06-27T03:52:39.987Z,90.06
2018-06-27T03:54:17.143Z,90.05
2018-06-27T03:55:53.786Z,90.16
2018-06-27T03:57:28.604Z,90.26
2018-06-27T03:59:03.597Z,90.01
2018-06-27T04:00:39.028Z,90.18
2018-06-27T04:02:14.999Z,90.14
2018-06-27T04:03:51.645Z,89.88
2018-06-27T04:05:27.887Z,89.68
2018-06-27T04:07:04.357Z,89.57
2018-06-27T04:08:39.962Z,89.62
2018-06-27T04:10:15.107Z,89.35
2018-06-27T04:11:51.942Z,89.59
2018-06-27T04:13:27.010Z,89.43
2018-06-27T04:15:04.462Z,89.73
2018-06-27T04:16:44.714Z,89.42
2018-06-27T04:18:19.640Z,89.94
2018-06-27T04:19:55.863Z,89.77
2018-06-27T04:21:31.595Z,89.76
2018-06-27T04:23:07.923Z,89.90
2018-06-27T04:24:43.499Z,89.36
2018-06-27T04:26:19.770Z,89.51
2018-06-27T04:27:56.594Z,89.72
2018-06-27T04:29:33.112Z,89.89
2018-06-27T04:31:10.021Z,89.42
2018-06-27T04:32:46.600Z,89.28
2018-06-27T04:34:22.306Z,89.66
2018-06-27T04:35:59.196Z,89.79
2018-06-27T04:37:35.011Z,89.54
2018-06-27T04:39:12.501Z,89.58
2018-06-27T04:40:48.027Z,89.46
2018-06-27T04:42:23.663Z,89.32
2018-06-27T04:43:59.940Z,89.72
2018-06-27T04:45:35.161Z,89.49
2018-06-27T04:47:11.307Z,89.43
2018-06-27T04:48:50.319Z,89.16
2018-06-27T04:50:25.506Z,89.32
2018-06-27T04:52:01.217Z,89.35
2018-06-27T04:53:36.443Z,89.08
2018-06-27T04:55:12.179Z,88.52
2018-06-27T04:56:47.316Z,88.03
2018-06-27T04:58:24.556Z,88.50
2018-06-27T04:59:59.826Z,87.99
2018-06-27T05:01:36.250Z,87.93
2018-06-27T05:03:14.030Z,88.36
2018-06-27T05:04:49.490Z,87.32
2018-06-27T05:06:24.687Z,87.03
2018-06-27T05:07:59.597Z,85.85
2018-06-27T05:09:35.500Z,84.39
2018-06-27T05:11:10.957Z,83.75
2018-06-27T05:12:49.773Z,83.72
2018-06-27T05:14:25.695Z,83.42
2018-06-27T05:16:02.407Z,81.17
2018-06-27T05:17:37.284Z,80.83
2018-06-27T05:19:13.409Z,79.83
2018-06-27T05:20:50.031Z,78.71
2018-06-27T05:22:28.761Z,77.62
2018-06-27T05:24:06.111Z,78.19
2018-06-27T05:25:42.866Z,75.65
2018-06-27T05:27:17.955Z,74.47
2018-06-27T05:29:03.993Z,72.92
2018-06-27T05:30:40.054Z,71.04
2018-06-27T05:32:16.601Z,69.69
2018-06-27T05:33:54.365Z,69.34
2018-06-27T05:35:31.527Z,69.14
2018-06-27T05:37:09.251Z,67.83
2018-06-27T05:38:44.460Z,68.05
2018-06-27T05:40:19.832Z,69.25
2018-06-27T05:41:56.457Z,66.95
2018-06-27T05:43:31.493Z,65.40
2018-06-27T05:45:08.815Z,65.71
2018-06-27T05:46:45.113Z,63.55
2018-06-27T05:48:20.059Z,64.24
2018-06-27T05:49:56.684Z,64.85
2018-06-27T05:51:33.684Z,63.85
2018-06-27T05:53:11.212Z,63.61
2018-06-27T05:54:47.999Z,62.35
2018-06-27T05:56:23.497Z,61.00
2018-06-27T05:58:01.079Z,60.77
2018-06-27T05:59:37.033Z,60.70
2018-06-27T06:01:13.406Z,59.38
2018-06-27T06:02:50.753Z,59.59
2018-06-27T06:04:27.681Z,58.53
2018-06-27T06:06:02.846Z,58.12
2018-06-27T06:07:38.446Z,59.41
2018-06-27T06:09:16.037Z,58.17
2018-06-27T06:10:52.339Z,55.57
2018-06-27T06:12:28.152Z,54.98
2018-06-27T06:14:03.750Z,55.75
2018-06-27T06:15:39.160Z,55.85
2018-06-27T06:17:14.727Z,54.38
2018-06-27T06:18:50.789Z,54.68
2018-06-27T06:20:27.741Z,53.13
2018-06-27T06:22:03.801Z,53.27
2018-06-27T06:23:39.599Z,53.37
2018-06-27T06:25:15.547Z,52.32
2018-06-27T06:26:51.176Z,52.67
2018-06-27T06:28:26.528Z,53.50
2018-06-27T06:30:04.892Z,52.50
2018-06-27T06:31:40.882Z,51.99
2018-06-27T06:33:16.505Z,53.44
2018-06-27T06:34:52.074Z,51.64
2018-06-27T06:36:27.142Z,51.98
2018-06-27T06:38:03.089Z,52.04
2018-06-27T06:39:38.060Z,52.27
2018-06-27T06:41:13.683Z,51.77
2018-06-27T06:42:49.115Z,52.27
2018-06-27T06:44:24.740Z,51.95
2018-06-27T06:45:59.908Z,52.69
2018-06-27T06:47:34.986Z,50.17
2018-06-27T06:49:10.962Z,51.40
2018-06-27T06:50:47.922Z,51.00
2018-06-27T06:52:23.302Z,52.39
2018-06-27T06:53:58.382Z,49.59
2018-06-27T06:55:34.983Z,52.67
2018-06-27T06:57:10.515Z,49.92
2018-06-27T06:58:46.686Z,50.14
2018-06-27T07:00:22.625Z,51.56
2018-06-27T07:01:57.891Z,51.72
2018-06-27T07:03:33.304Z,51.59
2018-06-27T07:05:08.822Z,50.47
2018-06-27T07:06:44.411Z,51.15
2018-06-27T07:08:20.018Z,49.37
2018-06-27T07:09:57.304Z,49.55
2018-06-27T07:11:33.339Z,48.33
2018-06-27T07:13:09.845Z,49.94
2018-06-27T07:14:45.681Z,50.22
2018-06-27T07:16:21.585Z,50.20
2018-06-27T07:17:56.798Z,50.77
2018-06-27T07:19:33.018Z,48.46
2018-06-27T07:21:12.031Z,49.02
2018-06-27T07:22:48.893Z,48.36
2018-06-27T07:24:24.448Z,46.58
2018-06-27T07:26:00.162Z,45.67
2018-06-27T07:27:35.414Z,46.00
2018-06-27T07:29:10.864Z,47.10
2018-06-27T07:30:45.896Z,45.92
2018-06-27T07:32:21.147Z,44.75
2018-06-27T07:33:56.645Z,46.35
2018-06-27T07:35:33.294Z,45.12
2018-06-27T07:37:08.906Z,44.50
2018-06-27T07:38:44.856Z,44.92
2018-06-27T07:40:20.669Z,43.62
2018-06-27T07:41:55.858Z,45.03
2018-06-27T07:43:31.325Z,44.58
2018-06-27T07:45:07.829Z,44.67
2018-06-27T07:46:43.472Z,44.61
2018-06-27T07:48:19.038Z,45.33
2018-06-27T07:49:55.123Z,45.16
2018-06-27T07:51:30.861Z,43.95
2018-06-27T07:53:11.227Z,42.56
2018-06-27T07:54:48.625Z,42.75
2018-06-27T07:56:25.447Z,43.83
2018-06-27T07:58:01.543Z,43.43
2018-06-27T07:59:36.793Z,43.08
2018-06-27T08:01:12.788Z,44.91
2018-06-27T08:02:47.965Z,42.95
2018-06-27T08:04:24.012Z,42.47
2018-06-27T08:06:03.104Z,43.58
2018-06-27T08:07:38.651Z,42.41
2018-06-27T08:09:17.498Z,41.88
2018-06-27T08:10:53.529Z,44.10
2018-06-27T08:12:29.056Z,42.62
2018-06-27T08:14:05.475Z,40.43
2018-06-27T08:15:41.979Z,40.36
2018-06-27T08:17:19.513Z,40.32
2018-06-27T08:19:03.506Z,39.87
2018-06-27T08:20:39.742Z,40.39
2018-06-27T08:22:23.665Z,40.27
2018-06-27T08:24:01.530Z,40.80
2018-06-27T08:25:36.926Z,40.65
2018-06-27T08:27:12.635Z,40.19
2018-06-27T08:28:48.833Z,40.04
2018-06-27T08:30:25.432Z,38.02
2018-06-27T08:32:00.682Z,38.19
2018-06-27T08:33:37.581Z,38.87
2018-06-27T08:35:15.192Z,39.19
2018-06-27T08:36:50.789Z,38.74
2018-06-27T08:40:08.608Z,38.74
2018-06-27T08:41:44.692Z,39.59
2018-06-27T08:43:20.905Z,36.86
2018-06-27T08:44:55.939Z,37.33
2018-06-27T08:46:35.337Z,35.06
2018-06-27T08:48:12.478Z,35.24
2018-06-27T08:49:49.749Z,36.17
2018-06-27T08:51:24.767Z,36.01
2018-06-27T08:53:00.124Z,35.81
2018-06-27T08:54:39.670Z,35.21
2018-06-27T08:56:15.691Z,36.00
2018-06-27T08:57:53.172Z,38.59
2018-06-27T08:59:29.206Z,40.09
2018-06-27T09:01:06.232Z,39.30
2018-06-27T09:02:45.903Z,39.57
2018-06-27T09:04:21.631Z,39.95
2018-06-27T09:06:01.912Z,39.37
2018-06-27T09:07:38.636Z,40.06
2018-06-27T09:09:14.262Z,41.60
2018-06-27T09:10:50.402Z,41.32
2018-06-27T09:12:26.068Z,41.28
2018-06-27T09:14:02.197Z,40.62
2018-06-27T09:15:37.317Z,40.45
2018-06-27T09:17:12.788Z,41.69
2018-06-27T09:18:50.089Z,39.85
2018-06-27T09:20:27.396Z,38.42
2018-06-27T09:22:03.127Z,39.24
2018-06-27T09:23:39.859Z,39.12
2018-06-27T09:25:14.974Z,41.49
2018-06-27T09:26:51.911Z,41.64
2018-06-27T09:28:29.405Z,43.44
2018-06-27T09:30:06.847Z,44.27
2018-06-27T09:31:43.162Z,46.25
2018-06-27T09:33:18.690Z,45.86
2018-06-27T09:34:55.922Z,47.16
2018-06-27T09:36:34.008Z,47.79
2018-06-27T09:38:10.819Z,46.86
2018-06-27T09:39:46.076Z,47.93
2018-06-27T09:41:22.630Z,46.52
2018-06-27T09:43:01.725Z,46.78
2018-06-27T09:44:43.140Z,48.28
2018-06-27T09:46:18.070Z,46.72
2018-06-27T09:47:53.899Z,47.24
2018-06-27T09:49:29.222Z,48.29
2018-06-27T09:51:04.953Z,47.60
2018-06-27T09:52:42.322Z,47.12
2018-06-27T09:54:17.861Z,47.07
2018-06-27T09:55:53.773Z,48.68
2018-06-27T09:57:28.978Z,47.60
2018-06-27T09:59:04.435Z,44.75
2018-06-27T10:00:41.707Z,46.20
2018-06-27T10:02:16.700Z,44.79
2018-06-27T10:03:57.848Z,43.87
2018-06-27T10:05:33.966Z,44.09
2018-06-27T10:07:11.427Z,44.57
2018-06-27T10:08:46.336Z,43.56
2018-06-27T10:11:25.498Z,43.68
2018-06-27T10:13:02.096Z,44.61
2018-06-27T10:14:38.661Z,43.95
2018-06-27T10:16:14.685Z,43.74
2018-06-27T10:20:04.320Z,41.07
2018-06-27T10:21:41.181Z,40.63
2018-06-27T10:23:16.534Z,39.36
2018-06-27T10:25:00.673Z,38.56
2018-06-27T10:26:40.343Z,37.22
2018-06-27T10:28:25.105Z,37.70
2018-06-27T10:30:10.097Z,36.75
2018-06-27T10:31:49.909Z,36.96
2018-06-27T10:33:41.179Z,36.27
2018-06-27T10:35:22.088Z,38.76
2018-06-27T10:37:02.689Z,36.93
2018-06-27T10:38:39.522Z,37.31
2018-06-27T10:40:16.755Z,37.63
2018-06-27T10:41:53.488Z,37.83
2018-06-27T10:43:32.236Z,37.70
2018-06-27T10:45:18.033Z,34.95
2018-06-27T10:46:54.041Z,35.40
2018-06-27T10:48:30.708Z,35.16
2018-06-27T10:50:09.377Z,35.47
2018-06-27T10:51:48.271Z,35.93
2018-06-27T10:53:25.258Z,33.94
2018-06-27T10:55:01.012Z,33.84
2018-06-27T10:56:37.457Z,33.38
2018-06-27T10:58:16.929Z,34.44
2018-06-27T10:59:54.378Z,35.25
2018-06-27T11:01:30.525Z,33.01
2018-06-27T11:03:05.636Z,32.99
2018-06-27T11:04:40.823Z,33.13
2018-06-27T11:06:17.398Z,32.32
2018-06-27T11:07:54.019Z,32.86
2018-06-27T11:11:20.154Z,33.73
2018-06-27T11:12:56.621Z,33.83
2018-06-27T11:14:35.565Z,34.43
2018-06-27T11:16:11.954Z,33.83
2018-06-27T11:17:49.274Z,32.53
2018-06-27T11:19:28.577Z,33.82
2018-06-27T11:21:07.220Z,35.01
2018-06-27T11:22:44.633Z,34.42
2018-06-27T11:24:21.464Z,37.80
2018-06-27T11:26:00.573Z,38.69
2018-06-27T11:27:37.865Z,39.33
2018-06-27T11:29:14.209Z,39.88
2018-06-27T11:30:50.597Z,39.80
2018-06-27T11:32:26.302Z,41.87
2018-06-27T11:34:03.523Z,40.13
2018-06-27T11:35:40.226Z,41.71
2018-06-27T11:37:15.470Z,39.47
2018-06-27T11:38:51.535Z,39.05
2018-06-27T11:40:31.517Z,40.09
2018-06-27T11:42:08.288Z,40.18
2018-06-27T11:43:46.145Z,40.86
2018-06-27T11:45:23.670Z,40.41
2018-06-27T11:47:01.496Z,37.05
2018-06-27T11:48:38.063Z,39.14
2018-06-27T11:50:16.278Z,38.75
2018-06-27T11:51:52.728Z,36.41
2018-06-27T11:53:30.765Z,38.39
2018-06-27T11:55:14.133Z,36.11
2018-06-27T11:56:51.324Z,36.56
2018-06-27T11:58:30.132Z,35.30
2018-06-27T12:00:14.005Z,35.32
2018-06-27T12:01:55.151Z,34.76
2018-06-27T12:03:31.621Z,36.20
2018-06-27T12:05:09.676Z,36.09
2018-06-27T12:06:47.537Z,33.34
2018-06-27T12:08:24.787Z,35.25
2018-06-27T12:53:19.665Z,35.49
2018-06-27T12:56:54.307Z,36.57
2018-06-27T12:58:32.370Z,33.56
2018-06-27T13:00:14.256Z,34.57
2018-06-27T13:01:50.594Z,35.13
2018-06-27T13:03:27.769Z,32.71
2018-06-27T13:05:05.112Z,33.37
2018-06-27T13:06:43.485Z,29.88
2018-06-27T13:08:20.991Z,29.79
2018-06-27T13:09:57.888Z,32.62
2018-06-27T13:11:36.360Z,32.71
2018-06-27T13:13:15.319Z,32.60
2018-06-27T13:14:51.388Z,30.62
2018-06-27T13:16:28.734Z,33.58
2018-06-27T13:18:07.066Z,33.95
2018-06-27T14:00:59.009Z,30.83
2018-06-27T14:02:35.410Z,30.15
2018-06-27T14:04:11.949Z,29.90
2018-06-27T14:05:49.247Z,29.98
2018-06-27T14:07:26.208Z,30.50
2018-06-27T14:09:02.744Z,30.20
2018-06-27T14:10:38.576Z,31.14
2018-06-27T14:12:19.184Z,32.19
2018-06-27T14:13:55.065Z,30.28
2018-06-27T14:15:33.753Z,30.40
2018-06-27T14:17:10.317Z,30.89
2018-06-27T14:18:46.213Z,30.15
2018-06-27T14:20:23.603Z,29.44
2018-06-27T14:22:00.866Z,29.67
2018-06-27T14:23:35.955Z,29.67
2018-06-27T14:25:16.968Z,29.74
2018-06-27T14:26:54.242Z,30.15
2018-06-27T14:28:31.953Z,29.94
2018-06-27T14:30:19.701Z,32.06
2018-06-27T14:31:55.508Z,29.47
2018-06-27T14:33:34.561Z,30.78
2018-06-27T14:35:10.843Z,29.66
2018-06-27T14:36:46.522Z,30.90
2018-06-27T14:38:22.553Z,31.81
2018-06-27T14:39:59.134Z,32.11
2018-06-27T14:41:34.805Z,31.90
2018-06-27T14:43:10.275Z,30.62
2018-06-27T14:44:46.045Z,31.70
2018-06-27T14:46:22.506Z,31.56
2018-06-27T14:47:58.511Z,30.59
2018-06-27T14:49:33.685Z,31.11
2018-06-27T14:51:09.376Z,32.65
2018-06-27T14:52:44.542Z,32.35
2018-06-27T14:54:25.076Z,31.26
2018-06-27T14:56:01.303Z,32.33
2018-06-27T14:57:42.645Z,33.35
2018-06-27T14:59:18.414Z,32.58
2018-06-27T15:00:56.536Z,31.26
2018-06-27T15:02:38.749Z,31.43
2018-06-27T15:04:17.537Z,32.56
2018-06-27T15:05:56.068Z,32.58
2018-06-27T15:07:37.697Z,32.48
2018-06-27T15:09:14.423Z,32.46
2018-06-27T15:10:49.862Z,32.91
2018-06-27T15:12:28.291Z,33.74
2018-06-27T15:14:05.006Z,33.61
2018-06-27T15:15:45.232Z,31.63
2018-06-27T15:17:21.809Z,32.73
2018-06-27T15:19:00.040Z,32.68
2018-06-27T15:20:35.537Z,32.22
2018-06-27T15:22:13.458Z,31.71
2018-06-27T15:23:51.599Z,33.08
2018-06-27T15:25:27.925Z,33.23
2018-06-27T15:27:08.958Z,32.74
2018-06-27T15:28:45.319Z,32.92
2018-06-27T15:30:20.974Z,32.83
2018-06-27T15:31:57.593Z,31.03
2018-06-27T15:33:55.833Z,32.46
2018-06-27T15:35:32.549Z,31.41
2018-06-27T15:37:09.805Z,30.83
2018-06-27T15:38:49.739Z,31.47
2018-06-27T15:40:27.475Z,32.20
2018-06-27T15:42:06.078Z,31.84
2018-06-27T15:43:43.025Z,30.79
2018-06-27T15:45:23.391Z,30.44
2018-06-27T15:47:01.487Z,31.68
2018-06-27T15:48:41.402Z,31.58
2018-06-27T15:50:18.486Z,30.48
2018-06-27T15:51:57.951Z,30.29
2018-06-27T15:55:24.675Z,32.50
2018-06-27T15:57:01.315Z,31.91
2018-06-27T15:58:38.925Z,33.52
2018-06-27T16:00:17.877Z,32.59
2018-06-27T16:01:53.796Z,33.35
2018-06-27T16:03:32.615Z,31.26
2018-06-27T16:05:08.516Z,32.61
2018-06-27T16:06:45.461Z,32.01
2018-06-27T16:08:21.724Z,32.31
2018-06-27T16:09:59.896Z,32.50
2018-06-27T16:11:39.130Z,32.06
2018-06-27T16:13:15.523Z,33.83
2018-06-27T16:14:52.088Z,33.89
2018-06-27T16:16:31.719Z,34.04
2018-06-27T16:18:12.604Z,33.95
2018-06-27T16:19:48.809Z,32.65
2018-06-27T16:21:29.305Z,31.84
2018-06-27T16:23:07.274Z,31.73
2018-06-27T16:24:44.769Z,31.53
2018-06-27T16:26:22.371Z,32.79
2018-06-27T16:28:03.216Z,32.06
2018-06-27T16:29:39.728Z,32.89
2018-06-27T16:31:15.042Z,33.63
2018-06-27T16:32:50.360Z,33.89
2018-06-27T16:34:25.785Z,34.41
2018-06-27T16:36:03.195Z,35.67
2018-06-27T16:37:39.557Z,35.67
2018-06-27T16:39:15.710Z,35.88
2018-06-27T16:40:56.068Z,34.94
2018-06-27T16:42:32.093Z,35.45
2018-06-27T16:44:09.507Z,35.23
2018-06-27T16:45:45.037Z,35.14
2018-06-27T16:47:21.685Z,34.40
2018-06-27T16:48:58.492Z,34.92
2018-06-27T16:50:33.922Z,34.92
2018-06-27T16:52:12.550Z,35.58
2018-06-27T16:53:48.094Z,35.82
2018-06-27T16:55:25.347Z,36.36
2018-06-27T16:57:01.656Z,37.02
2018-06-27T16:58:37.952Z,38.24
2018-06-27T17:00:15.833Z,38.02
2018-06-27T17:01:52.845Z,38.68
2018-06-27T17:03:28.681Z,37.77
2018-06-27T17:05:06.370Z,37.26
2018-06-27T17:06:44.692Z,39.19
2018-06-27T17:08:22.018Z,38.30
2018-06-27T17:09:59.769Z,38.78
2018-06-27T17:11:37.689Z,38.81
2018-06-27T17:13:14.330Z,38.10
2018-06-27T17:14:52.227Z,38.04
2018-06-27T17:16:31.514Z,37.41
2018-06-27T17:18:13.821Z,36.71
2018-06-27T17:19:55.990Z,37.70
2018-06-27T17:21:33.334Z,36.53
2018-06-27T17:23:15.966Z,35.77
2018-06-27T17:24:51.877Z,36.07
2018-06-27T17:26:28.973Z,36.52
2018-06-27T17:28:08.973Z,37.43
2018-06-27T17:29:46.026Z,37.52
2018-06-27T17:31:25.147Z,38.14
2018-06-27T17:33:08.100Z,38.74
2018-06-27T17:34:50.564Z,37.58
2018-06-27T17:36:30.596Z,36.58
2018-06-27T17:38:12.530Z,36.36
2018-06-27T17:39:54.113Z,37.45
2018-06-27T17:41:35.721Z,37.70
2018-06-27T17:43:14.092Z,36.76
2018-06-27T17:44:51.804Z,37.36
2018-06-27T17:46:39.783Z,38.80
2018-06-27T17:48:20.106Z,38.32
2018-06-27T17:50:01.945Z,38.30
2018-06-27T17:53:43.716Z,40.15
2018-06-27T17:55:22.735Z,39.17
2018-06-27T17:57:09.536Z,40.21
2018-06-27T17:58:58.047Z,39.65
2018-06-27T18:00:34.952Z,38.56
2018-06-27T18:02:16.363Z,38.49
2018-06-27T18:04:00.527Z,38.18
2018-06-27T18:05:37.671Z,38.36
2018-06-27T18:07:18.592Z,38.83
2018-06-27T18:08:57.974Z,38.18
2018-06-27T18:10:38.845Z,37.77
2018-06-27T18:12:18.107Z,38.09
2018-06-27T18:14:01.653Z,37.93
2018-06-27T18:15:45.606Z,38.90
2018-06-27T18:17:29.540Z,38.33
2018-06-27T18:19:16.119Z,38.34
2018-06-27T18:20:59.390Z,37.78
2018-06-27T18:22:38.690Z,38.30
2018-06-27T18:24:21.144Z,37.76
2018-06-27T18:26:05.688Z,37.69
2018-06-27T18:27:42.759Z,37.91
2018-06-27T18:29:23.311Z,38.28
2018-06-27T18:30:59.701Z,38.35
2018-06-27T18:32:40.649Z,38.09
2018-06-27T18:34:20.250Z,39.13
2018-06-27T18:35:58.086Z,39.24
2018-06-27T18:37:34.784Z,39.14
2018-06-27T18:39:12.856Z,41.01
2018-06-27T18:40:51.359Z,39.74
2018-06-27T18:42:32.460Z,40.56
2018-06-27T18:44:11.989Z,40.76
2018-06-27T18:45:51.508Z,41.10
2018-06-27T18:47:31.230Z,41.69
2018-06-27T18:49:09.945Z,41.42
2018-06-27T18:50:46.748Z,40.55
2018-06-27T18:52:25.876Z,41.22
2018-06-27T18:54:04.124Z,41.99
2018-06-27T18:55:52.433Z,40.64
2018-06-27T18:57:30.094Z,41.97
2018-06-27T19:01:10.696Z,42.29
2018-06-27T19:02:55.101Z,42.82
2018-06-27T19:04:39.787Z,43.14
2018-06-27T19:06:33.047Z,43.25
2018-06-27T19:08:10.672Z,44.19
2018-06-27T19:09:53.282Z,44.29
2018-06-27T19:11:32.573Z,44.45
2018-06-27T19:15:14.813Z,46.52
2018-06-27T19:18:43.128Z,47.33
2018-06-27T19:20:30.425Z,47.41
2018-06-27T19:22:18.425Z,48.86
2018-06-27T19:25:14.354Z,48.79
2018-06-27T19:26:57.459Z,48.55
2018-06-27T19:28:38.413Z,50.01
2018-06-27T19:30:26.764Z,50.06
2018-06-27T19:32:05.547Z,50.54
2018-06-27T19:33:52.152Z,51.07
2018-06-27T19:35:35.405Z,49.85
2018-06-27T19:37:17.071Z,52.06
2018-06-27T19:38:57.524Z,51.17
2018-06-27T19:40:41.273Z,51.17
2018-06-27T19:42:26.144Z,52.06
2018-06-27T19:44:04.386Z,52.62
2018-06-27T19:45:43.376Z,51.61
2018-06-27T19:47:24.491Z,51.60
2018-06-27T19:49:07.904Z,51.74
2018-06-27T19:50:55.462Z,53.04
2018-06-27T19:53:04.958Z,52.61
2018-06-27T19:55:45.406Z,52.23
2018-06-27T19:57:24.675Z,52.99
2018-06-27T19:59:05.336Z,53.30
2018-06-27T20:00:42.469Z,53.44
2018-06-27T20:02:19.428Z,53.94
2018-06-27T20:03:58.754Z,54.12
2018-06-27T20:07:33.921Z,53.60
2018-06-27T20:09:11.172Z,54.11
2018-06-27T20:10:51.409Z,55.34
2018-06-27T20:12:30.354Z,54.99
2018-06-27T20:14:19.553Z,54.64
2018-06-27T20:15:58.925Z,54.44
2018-06-27T20:17:57.886Z,54.99
2018-06-27T20:19:38.690Z,54.65
2018-06-27T20:21:17.914Z,54.23
2018-06-27T20:22:55.782Z,54.16
2018-06-27T20:24:33.751Z,54.88
2018-06-27T20:26:21.288Z,54.88
2018-06-27T20:27:58.563Z,54.66
2018-06-27T20:29:35.865Z,54.29
2018-06-27T20:31:19.753Z,54.65
2018-06-27T20:32:58.255Z,55.67
2018-06-27T20:34:36.740Z,54.38
2018-06-27T20:36:15.997Z,54.21
2018-06-27T20:38:00.766Z,53.62
2018-06-27T20:39:50.568Z,54.39
2018-06-27T20:41:33.387Z,54.43
2018-06-27T20:43:12.034Z,54.22
2018-06-27T20:44:51.272Z,54.65
2018-06-27T20:46:28.396Z,54.71
2018-06-27T20:48:06.211Z,54.69
2018-06-27T20:49:48.521Z,53.70
2018-06-27T20:51:31.272Z,55.04
2018-06-27T20:53:08.221Z,54.11
2018-06-27T20:54:45.395Z,54.41
2018-06-27T20:56:26.556Z,54.49
2018-06-27T20:58:05.531Z,54.25
2018-06-27T20:59:47.449Z,54.21
2018-06-27T21:01:31.574Z,54.38
2018-06-27T21:03:08.885Z,54.19
2018-06-27T21:04:50.364Z,55.10
2018-06-27T21:06:27.531Z,54.52
2018-06-27T21:08:09.812Z,54.63
2018-06-27T21:09:51.604Z,55.24
2018-06-27T21:11:29.874Z,55.52
2018-06-27T21:13:06.813Z,55.86
2018-06-27T21:14:51.634Z,56.42
2018-06-27T21:16:33.660Z,56.56
2018-06-27T21:18:10.595Z,56.61
2018-06-27T21:19:52.459Z,57.23
2018-06-27T21:21:30.539Z,57.22
2018-06-27T21:23:09.460Z,57.78
2018-06-27T21:24:45.852Z,57.33
2018-06-27T21:26:31.415Z,57.40
2018-06-27T21:28:16.212Z,58.03
2018-06-27T21:29:54.169Z,58.13
2018-06-27T21:31:31.496Z,57.16
2018-06-27T21:33:09.446Z,58.02
2018-06-27T21:34:47.393Z,57.94
2018-06-27T21:36:27.955Z,57.75
2018-06-27T21:38:22.092Z,57.41
2018-06-27T21:40:04.931Z,57.94
2018-06-27T21:41:41.817Z,59.63
2018-06-27T21:43:18.580Z,60.96
2018-06-27T21:45:04.276Z,60.23
2018-06-27T21:46:48.448Z,59.58
2018-06-27T21:50:11.585Z,60.83
2018-06-27T21:51:57.597Z,60.80
2018-06-27T21:53:41.984Z,60.25
2018-06-27T21:55:21.356Z,61.11
2018-06-27T21:57:03.292Z,62.46
2018-06-27T21:58:39.575Z,62.61
2018-06-27T22:00:21.222Z,62.06
2018-06-27T22:02:02.676Z,62.37
2018-06-27T22:03:41.707Z,61.78
2018-06-27T22:05:23.572Z,62.27
2018-06-27T22:07:03.281Z,62.43
2018-06-27T22:08:45.654Z,62.87
2018-06-27T22:10:22.710Z,62.69
2018-06-27T22:12:00.161Z,62.76
2018-06-27T22:13:37.045Z,63.57
2018-06-27T22:15:15.436Z,64.00
2018-06-27T22:16:54.581Z,64.03
2018-06-27T22:18:35.384Z,64.32
2018-06-27T22:20:11.586Z,64.15
2018-06-27T22:21:47.691Z,63.99
2018-06-27T22:23:23.408Z,64.21
2018-06-27T22:24:59.196Z,64.21
2018-06-27T22:26:35.094Z,64.90
2018-06-27T22:28:13.016Z,65.60
2018-06-27T22:29:49.368Z,65.35
2018-06-27T22:31:24.974Z,65.08
2018-06-27T22:33:01.369Z,65.58
2018-06-27T22:34:37.704Z,64.92
2018-06-27T22:36:12.980Z,65.48
2018-06-27T22:37:48.504Z,65.04
2018-06-27T22:40:52.656Z,64.74
2018-06-27T22:42:28.412Z,64.36
2018-06-27T22:44:03.759Z,65.06
2018-06-27T22:45:41.010Z,65.47
2018-06-27T22:47:19.606Z,64.91
2018-06-27T22:48:57.589Z,65.43